Airfield :
LOGIN :

Register | Disclaimer

   EN    FR    IT 

 










Legend :    VFR   Marginal VFR   IFR   Intensive IFR   Very Intensive IFR
Visi :
Ceiling :
>= 8 km
>= 3000ft
5 to 8 km
1000 to 3000 ft
1500m to 5 km
500 to 1000 ft
800 to 1500m
200 to 500 ft
< 800m
< 200 ft
Symbols :   Thunderstorms  Fog  Heavy snow  Heavy precipitations  Wind > 20 kt
SIGMETs :     Misc.  Thunderstorms  Icing  Turbulence  Mountain Waves  Volcanic Ashes






- Airport Elevation : -11 ft
- IATA code : AMS


EHAM - Amsterdam Schiphol

CURRENT METAR :
  • 162325Z 20007KT CAVOK 13/11 Q1007 NOSIG

EXPIRED METARs :
  • 162255Z 18007KT CAVOK 13/11 Q1007 NOSIG
  • 162225Z 16005KT CAVOK 13/11 Q1007 NOSIG
  • 162155Z 19004KT CAVOK 13/10 Q1007 NOSIG
  • 162125Z 21007KT CAVOK 13/10 Q1007 NOSIG
  • 162055Z 23008KT CAVOK 14/10 Q1007 NOSIG
  • 162025Z 23009KT 200V270 CAVOK 14/10 Q1007 NOSIG
  • 161955Z 24011KT 9999 FEW035 15/10 Q1006 NOSIG
  • 161925Z 24010KT 9999 FEW035 16/11 Q1006 NOSIG
  • 161855Z 24012KT 210V270 9999 FEW035 16/11 Q1006 NOSIG

TAF TAF EHAM
Valid from the 17 at 00:00 until the 18 at 06:00 UTC


162300Z 1700/1806 19007KT 9999 FEW025
PROB30
TEMPO 1704/1707 BKN014
BECMG 1706/1709 24012KT CAVOK
BECMG 1717/1720 VRB02KT
PROB30
TEMPO 1802/1806 1500 BCFG



MET'MAP, your aeronautical weather chart ! - Copyright ORBIFLY December 2007 - Disclaimer

ORBIFLY MET'MAP TEAM :

Programming & Development : Alexandra Zaïnal
Original concept : Baudouin d'Aumeries
Technical & hardware support : Manuel Goepfert
Assistance : Marc-Olivier Méhu




SOURCES & CREDITS :

   NOAA